Carnival Valor — H3VR — position and weather

sailwx.info

Track history (hours):
 
Tides and Currents Weather Stations Pressure Air Temp Water Temp Dewpoint Dewpoint Depression Visibility Wind Speed Wind Dir Waves Ship Positions

Carnival Valor

Last reported at 2018-Oct-22 23:30 UTC. Time now 2018-Oct-22 23:34 UTC.
Position N 20°34' W 086°59'.

Type: Ship. MMSI: 354298000.

Date/timePositionNaut miles runAvg speedWind from/ knotsBaromVisibWave heightAir tempDewpointWater temp
2018-Oct-22 23:30N 20°34' W 086°59'511.4
2018-Oct-22 23:04N 20°29' W 086°59'0 4.3
2018-Oct-22 23:01N 20°29' W 086°59'0 0.8
2018-Oct-22 22:29N 20°29' W 086°59'0 0.0
2018-Oct-22 22:02N 20°29' W 086°59'0 0.0
2018-Oct-22 21:56N 20°29' W 086°59'0 0.0
2018-Oct-22 21:29N 20°29' W 086°59'0 0.0
2018-Oct-22 21:01N 20°29' W 086°59'0 0.0
2018-Oct-22 20:58N 20°29' W 086°59'0 0.0
2018-Oct-22 20:28N 20°29' W 086°59'0 0.0
2018-Oct-22 20:01N 20°29' W 086°59'0 0.0
2018-Oct-22 19:58N 20°29' W 086°59'0 0.0
2018-Oct-22 19:25N 20°29' W 086°59'0 0.0
2018-Oct-22 19:01N 20°29' W 086°59'0 0.0
2018-Oct-22 18:30N 20°29' W 086°59'0 0.0
2018-Oct-22 18:00N 20°29' W 086°59'0 0.0
2018-Oct-22 17:30N 20°29' W 086°59'0 0.0
2018-Oct-22 17:03N 20°29' W 086°59'0 0.0
2018-Oct-22 17:00N 20°29' W 086°59'0 0.0
2018-Oct-22 16:29N 20°29' W 086°59'0 0.0
2018-Oct-22 16:02N 20°29' W 086°59'0 0.0
2018-Oct-22 15:59N 20°29' W 086°59'0 0.0
2018-Oct-22 15:29N 20°29' W 086°59'0 0.0
2018-Oct-22 15:02N 20°29' W 086°59'0 0.0
2018-Oct-22 14:59N 20°29' W 086°59'0 0.0
2018-Oct-22 14:29N 20°29' W 086°59'0 0.0
2018-Oct-22 13:30N 20°29' W 086°59'2 5.2
2018-Oct-22 13:03N 20°31' W 086°60'010.1
2018-Oct-22 13:01N 20°31' W 086°60'714.6
2018-Oct-22 12:30N 20°38' W 086°57'2919.4
2018-Oct-22 11:00N 21°00' W 086°36'42217.6 090 / 181015.610.8 27.024.129.0
2018-Oct-21 11:00N 26°30' W 091°24'22318.6 100 / 121016.610.8 26.024.629.0
2018-Oct-20 23:00N 29°06' W 094°24'2214.3 1017.9
2018-Oct-20 21:26N 29°21' W 094°43'410.2
2018-Oct-20 21:03N 29°19' W 094°47'0 8.0
2018-Oct-20 21:00N 29°19' W 094°48'0 0.5
2018-Oct-20 19:59N 29°19' W 094°48'0 0.0
2018-Oct-20 19:14N 29°19' W 094°48'0 0.0
2018-Oct-20 17:46N 29°19' W 094°48'0 0.0
2018-Oct-20 16:46N 29°19' W 094°48'0 0.0
2018-Oct-20 16:22N 29°19' W 094°48'0 0.0
2018-Oct-20 15:55N 29°19' W 094°48'0 0.0
2018-Oct-20 15:27N 29°19' W 094°48'0 0.0
2018-Oct-20 14:57N 29°19' W 094°48'0 0.0
2018-Oct-20 14:03N 29°19' W 094°48'0 0.0
2018-Oct-20 13:54N 29°19' W 094°48'0 0.0
2018-Oct-20 13:30N 29°19' W 094°48'0 0.0
2018-Oct-20 13:02N 29°19' W 094°48'0 0.0
2018-Oct-20 12:59N 29°19' W 094°48'0 0.0
2018-Oct-20 12:30N 29°19' W 094°48'1 2.9
2018-Oct-20 12:03N 29°19' W 094°47'0 1.8
2018-Oct-20 12:00N 29°19' W 094°47'4 7.6
2018-Oct-20 11:31N 29°21' W 094°43'714.6
2018-Oct-20 11:03N 29°18' W 094°36'114.2
2018-Oct-20 11:01N 29°17' W 094°36'4 8.7
2018-Oct-20 10:31N 29°14' W 094°32'510.8
2018-Oct-20 10:03N 29°11' W 094°27'112.0
2018-Oct-20 10:00N 29°11' W 094°27'6384.0
2018-Oct-20 10:00N 29°06' W 094°24'4 4.8 360 / 161017.610.8 27.024.129.0
2018-Oct-20 09:14N 29°02' W 094°25'934.7
2018-Oct-20 09:00N 28°54' W 094°24'310.7 090 / 151017.810.8 26.023.128.1
2018-Oct-20 08:45N 28°57' W 094°25'311.9
2018-Oct-20 08:29N 28°53' W 094°25'512.1
2018-Oct-20 08:02N 28°48' W 094°25'012.3
2018-Oct-20 08:00N 28°48' W 094°25'712.0
2018-Oct-20 07:28N 28°41' W 094°25'613.6
2018-Oct-20 07:02N 28°35' W 094°25'115.7
2018-Oct-20 07:00N 28°35' W 094°25'1215.9
2018-Oct-20 06:13N 28°22' W 094°25'415.9
2018-Oct-20 05:59N 28°19' W 094°25'4714.7
2018-Oct-20 02:46N 27°32' W 094°14'6116.1
2018-Oct-19 23:00N 26°42' W 093°36'16915.4 090 / 201017.810.8 28.023.730.0
2018-Oct-19 12:00N 24°24' W 091°48'20917.4 160 / 181018.510.8 27.024.130.0
2018-Oct-19 00:00N 21°30' W 089°42'10 1.2 1015.4
2018-Oct-18 15:59N 21°21' W 089°41'0 0.0
2018-Oct-18 14:59N 21°21' W 089°41'0 0.0
2018-Oct-18 14:30N 21°21' W 089°41'10 6.7
2018-Oct-18 13:00N 21°18' W 089°30'15211.7 100 / 101015.510.8 27.024.129.0
2018-Oct-18 00:00N 20°36' W 086°54'418.3 090 / 151014.910.8 28.023.730.0
2018-Oct-17 23:45N 20°35' W 086°59'414.5
2018-Oct-17 23:30N 20°32' W 087°00'4 7.7
2018-Oct-17 23:02N 20°29' W 086°59'0 1.6
2018-Oct-17 22:59N 20°29' W 086°59'0 0.0
2018-Oct-17 22:29N 20°29' W 086°59'0 0.0
2018-Oct-17 22:02N 20°29' W 086°59'0 0.0
2018-Oct-17 21:59N 20°29' W 086°59'0 0.0
2018-Oct-17 21:29N 20°29' W 086°59'0 0.0
2018-Oct-17 20:58N 20°29' W 086°59'0 0.0
2018-Oct-17 20:28N 20°29' W 086°59'0 0.0
2018-Oct-17 20:01N 20°29' W 086°59'0 0.0
2018-Oct-17 19:58N 20°29' W 086°59'0 0.0
2018-Oct-17 19:28N 20°29' W 086°59'0 0.0
2018-Oct-17 19:01N 20°29' W 086°59'0 0.0
2018-Oct-17 18:58N 20°29' W 086°59'0 0.0
2018-Oct-17 18:30N 20°29' W 086°59'0 0.0
2018-Oct-17 18:03N 20°29' W 086°59'0 0.0
2018-Oct-17 18:00N 20°29' W 086°59'0 0.0
2018-Oct-17 17:30N 20°29' W 086°59'0 0.0
2018-Oct-17 17:03N 20°29' W 086°59'0 0.0
2018-Oct-17 17:00N 20°29' W 086°59'0 0.0
2018-Oct-17 16:29N 20°29' W 086°59'0 0.0
2018-Oct-17 16:02N 20°29' W 086°59'0 0.0
2018-Oct-17 15:59N 20°29' W 086°59'0 0.0
2018-Oct-17 15:29N 20°29' W 086°59'0 0.0
2018-Oct-17 15:02N 20°29' W 086°59'0 0.0
2018-Oct-17 14:59N 20°29' W 086°59'0 0.0
2018-Oct-17 13:58N 20°29' W 086°59'1 2.3
2018-Oct-17 13:30N 20°29' W 086°59'4 9.9
2018-Oct-17 13:03N 20°34' W 086°59'116.4
2018-Oct-17 13:00N 20°35' W 086°59'3316.5
2018-Oct-17 11:00N 21°00' W 086°36'20818.9 120 / 281014.010.8 28.022.129.0
2018-Oct-17 00:00N 23°48' W 088°48'22717.5 090 / 201014.510.8 28.022.130.0
2018-Oct-16 11:00N 26°42' W 091°30'19918.1 180 / 201015.310.8 27.022.629.0
2018-Oct-16 00:00N 29°00' W 094°12'1818.0 020 / 221016.0 5.4 28.026.630.0
2018-Oct-15 22:59N 29°11' W 094°29'1014.7
2018-Oct-15 22:20N 29°17' W 094°37'413.7
2018-Oct-15 22:03N 29°20' W 094°40'117.6
2018-Oct-15 22:00N 29°20' W 094°41'510.0
2018-Oct-15 21:29N 29°19' W 094°47'1 2.1
2018-Oct-15 20:59N 29°19' W 094°48'0 0.0
2018-Oct-15 20:29N 29°19' W 094°48'0 0.0
2018-Oct-15 20:02N 29°19' W 094°48'0 0.0
2018-Oct-15 19:59N 29°19' W 094°48'0 0.0
2018-Oct-15 19:29N 29°19' W 094°48'0 0.0
2018-Oct-15 19:01N 29°19' W 094°48'0 0.0
2018-Oct-15 18:58N 29°19' W 094°48'0 0.0
2018-Oct-15 18:28N 29°19' W 094°48'0 0.0
2018-Oct-15 18:01N 29°19' W 094°48'0 0.0
2018-Oct-15 17:55N 29°19' W 094°48'0 0.0
2018-Oct-15 17:28N 29°19' W 094°48'0 0.0
2018-Oct-15 17:03N 29°19' W 094°48'0 0.0
2018-Oct-15 17:00N 29°19' W 094°48'0 0.0
2018-Oct-15 16:30N 29°19' W 094°48'0 0.0
2018-Oct-15 16:03N 29°19' W 094°48'0 0.0
2018-Oct-15 16:00N 29°19' W 094°48'0 0.0
2018-Oct-15 15:30N 29°19' W 094°48'0 0.0
2018-Oct-15 15:03N 29°19' W 094°48'0 0.0
2018-Oct-15 15:00N 29°19' W 094°48'0 0.0
2018-Oct-15 14:29N 29°19' W 094°48'0 0.0
2018-Oct-15 13:59N 29°19' W 094°48'0 0.0
2018-Oct-15 13:29N 29°19' W 094°48'0 0.0
2018-Oct-15 13:02N 29°19' W 094°48'0 0.0
2018-Oct-15 12:59N 29°19' W 094°48'0 0.8
2018-Oct-15 12:30N 29°19' W 094°47'4 8.4
2018-Oct-15 12:03N 29°21' W 094°44'114.4
2018-Oct-15 12:01N 29°21' W 094°43'713.8
2018-Oct-15 11:31N 29°18' W 094°36'612.8
2018-Oct-15 11:03N 29°14' W 094°30'115.3
2018-Oct-15 11:00N 29°14' W 094°30'3115.9
2018-Oct-15 09:02N 28°56' W 094°00'1216.9
2018-Oct-15 08:18N 28°49' W 093°49'518.4
2018-Oct-15 08:02N 28°46' W 093°44'118.6
2018-Oct-15 07:57N 28°45' W 093°43'1618.4
2018-Oct-15 07:05N 28°35' W 093°28'218.4
2018-Oct-15 06:58N 28°34' W 093°26'1118.3
2018-Oct-15 06:21N 28°28' W 093°16'518.2
2018-Oct-15 06:03N 28°24' W 093°11'1019.0
2018-Oct-15 05:31N 28°19' W 093°01'519.0
2018-Oct-15 05:16N 28°16' W 092°57'1318.8
2018-Oct-15 04:36N 28°07' W 092°47'10819.2
2018-Oct-14 23:00N 26°48' W 091°24'23519.5 090 / 111013.110.8 28.020.530.0
2018-Oct-14 11:00N 23°54' W 088°30'5326.7 090 / 121012.910.8 27.024.125.0
2018-Oct-14 09:00N 23°12' W 087°54'16218.0 090 / 121012.410.8 26.023.129.0
2018-Oct-14 00:00N 20°42' W 086°48'1226.3 090 / 171011.210.8 28.026.630.0
2018-Oct-13 23:33N 20°35' W 086°58'116.6
2018-Oct-13 23:30N 20°35' W 086°59'511.6
2018-Oct-13 23:03N 20°29' W 086°59'010.2
2018-Oct-13 23:00N 20°29' W 086°59'1 1.2
2018-Oct-13 22:29N 20°29' W 086°59'0 0.0
2018-Oct-13 22:01N 20°29' W 086°59'0 0.0
2018-Oct-13 21:58N 20°29' W 086°59'0 0.0
2018-Oct-13 21:28N 20°29' W 086°59'0 0.0
2018-Oct-13 21:01N 20°29' W 086°59'0 0.0
2018-Oct-13 20:58N 20°29' W 086°59'0 0.0
2018-Oct-13 20:28N 20°29' W 086°59'0 0.0
2018-Oct-13 20:03N 20°29' W 086°59'0 0.0
2018-Oct-13 20:00N 20°29' W 086°59'0 0.0
2018-Oct-13 19:30N 20°29' W 086°59'0 0.0
2018-Oct-13 19:03N 20°29' W 086°59'0 0.0
2018-Oct-13 19:00N 20°29' W 086°59'0 0.0
2018-Oct-13 18:30N 20°29' W 086°59'0 0.0
2018-Oct-13 18:03N 20°29' W 086°59'0 0.0
2018-Oct-13 18:00N 20°29' W 086°59'0 0.0
2018-Oct-13 17:30N 20°29' W 086°59'0 0.0
2018-Oct-13 17:02N 20°29' W 086°59'0 0.0
2018-Oct-13 16:59N 20°29' W 086°59'0 0.0
2018-Oct-13 16:29N 20°29' W 086°59'0 0.0
2018-Oct-13 16:02N 20°29' W 086°59'0 0.0
2018-Oct-13 15:59N 20°29' W 086°59'0 0.0
2018-Oct-13 15:28N 20°29' W 086°59'0 0.0
2018-Oct-13 15:01N 20°29' W 086°59'0 0.0
2018-Oct-13 14:58N 20°29' W 086°59'0 0.0
2018-Oct-13 14:01N 20°29' W 086°59'0 0.1
2018-Oct-13 13:58N 20°29' W 086°59'0 1.1
2018-Oct-13 13:30N 20°29' W 086°59'4 8.2
2018-Oct-13 13:03N 20°33' W 087°00'113.3
2018-Oct-13 13:01N 20°33' W 086°60'1918.2
2018-Oct-13 12:00N 20°48' W 086°48'19616.3 090 / 51012.6 27.024.130.0
2018-Oct-13 00:00N 23°36' W 088°36'  
Track history (hours):
 
Tides and Currents Weather Stations Pressure Air Temp Water Temp Dewpoint Dewpoint Depression Visibility Wind Speed Wind Dir Waves Ship Positions

Carnival Valor

Last reported at 2018-Oct-22 23:30 UTC. Time now 2018-Oct-22 23:34 UTC.
Position N 20°34' W 086°59'.

Type: Ship. MMSI: 354298000.

Date/timePositionNaut miles runAvg speedWind from/ knotsBaromVisibWave heightAir tempDewpointWater temp
2018-Oct-22 23:30N 20°34' W 086°59'511.4
2018-Oct-22 23:04N 20°29' W 086°59'0 4.3
2018-Oct-22 23:01N 20°29' W 086°59'0 0.8
2018-Oct-22 22:29N 20°29' W 086°59'0 0.0
2018-Oct-22 22:02N 20°29' W 086°59'0 0.0
2018-Oct-22 21:56N 20°29' W 086°59'0 0.0
2018-Oct-22 21:29N 20°29' W 086°59'0 0.0
2018-Oct-22 21:01N 20°29' W 086°59'0 0.0
2018-Oct-22 20:58N 20°29' W 086°59'0 0.0
2018-Oct-22 20:28N 20°29' W 086°59'0 0.0
2018-Oct-22 20:01N 20°29' W 086°59'0 0.0
2018-Oct-22 19:58N 20°29' W 086°59'0 0.0
2018-Oct-22 19:25N 20°29' W 086°59'0 0.0
2018-Oct-22 19:01N 20°29' W 086°59'0 0.0
2018-Oct-22 18:30N 20°29' W 086°59'0 0.0
2018-Oct-22 18:00N 20°29' W 086°59'0 0.0
2018-Oct-22 17:30N 20°29' W 086°59'0 0.0
2018-Oct-22 17:03N 20°29' W 086°59'0 0.0
2018-Oct-22 17:00N 20°29' W 086°59'0 0.0
2018-Oct-22 16:29N 20°29' W 086°59'0 0.0
2018-Oct-22 16:02N 20°29' W 086°59'0 0.0
2018-Oct-22 15:59N 20°29' W 086°59'0 0.0
2018-Oct-22 15:29N 20°29' W 086°59'0 0.0
2018-Oct-22 15:02N 20°29' W 086°59'0 0.0
2018-Oct-22 14:59N 20°29' W 086°59'0 0.0
2018-Oct-22 14:29N 20°29' W 086°59'0 0.0
2018-Oct-22 13:30N 20°29' W 086°59'2 5.2
2018-Oct-22 13:03N 20°31' W 086°60'010.1
2018-Oct-22 13:01N 20°31' W 086°60'714.6
2018-Oct-22 12:30N 20°38' W 086°57'2919.4
2018-Oct-22 11:00N 21°00' W 086°36'42217.6 090 / 181015.610.8 27.024.129.0
2018-Oct-21 11:00N 26°30' W 091°24'22318.6 100 / 121016.610.8 26.024.629.0
2018-Oct-20 23:00N 29°06' W 094°24'2214.3 1017.9
2018-Oct-20 21:26N 29°21' W 094°43'410.2
2018-Oct-20 21:03N 29°19' W 094°47'0 8.0
2018-Oct-20 21:00N 29°19' W 094°48'0 0.5
2018-Oct-20 19:59N 29°19' W 094°48'0 0.0
2018-Oct-20 19:14N 29°19' W 094°48'0 0.0
2018-Oct-20 17:46N 29°19' W 094°48'0 0.0
2018-Oct-20 16:46N 29°19' W 094°48'0 0.0
2018-Oct-20 16:22N 29°19' W 094°48'0 0.0
2018-Oct-20 15:55N 29°19' W 094°48'0 0.0
2018-Oct-20 15:27N 29°19' W 094°48'0 0.0
2018-Oct-20 14:57N 29°19' W 094°48'0 0.0
2018-Oct-20 14:03N 29°19' W 094°48'0 0.0
2018-Oct-20 13:54N 29°19' W 094°48'0 0.0
2018-Oct-20 13:30N 29°19' W 094°48'0 0.0
2018-Oct-20 13:02N 29°19' W 094°48'0 0.0
2018-Oct-20 12:59N 29°19' W 094°48'0 0.0
2018-Oct-20 12:30N 29°19' W 094°48'1 2.9
2018-Oct-20 12:03N 29°19' W 094°47'0 1.8
2018-Oct-20 12:00N 29°19' W 094°47'4 7.6
2018-Oct-20 11:31N 29°21' W 094°43'714.6
2018-Oct-20 11:03N 29°18' W 094°36'114.2
2018-Oct-20 11:01N 29°17' W 094°36'4 8.7
2018-Oct-20 10:31N 29°14' W 094°32'510.8
2018-Oct-20 10:03N 29°11' W 094°27'112.0
2018-Oct-20 10:00N 29°11' W 094°27'6384.0
2018-Oct-20 10:00N 29°06' W 094°24'4 4.8 360 / 161017.610.8 27.024.129.0
2018-Oct-20 09:14N 29°02' W 094°25'934.7
2018-Oct-20 09:00N 28°54' W 094°24'310.7 090 / 151017.810.8 26.023.128.1
2018-Oct-20 08:45N 28°57' W 094°25'311.9
2018-Oct-20 08:29N 28°53' W 094°25'512.1
2018-Oct-20 08:02N 28°48' W 094°25'012.3
2018-Oct-20 08:00N 28°48' W 094°25'712.0
2018-Oct-20 07:28N 28°41' W 094°25'613.6
2018-Oct-20 07:02N 28°35' W 094°25'115.7
2018-Oct-20 07:00N 28°35' W 094°25'1215.9
2018-Oct-20 06:13N 28°22' W 094°25'415.9
2018-Oct-20 05:59N 28°19' W 094°25'4714.7
2018-Oct-20 02:46N 27°32' W 094°14'6116.1
2018-Oct-19 23:00N 26°42' W 093°36'16915.4 090 / 201017.810.8 28.023.730.0
2018-Oct-19 12:00N 24°24' W 091°48'20917.4 160 / 181018.510.8 27.024.130.0
2018-Oct-19 00:00N 21°30' W 089°42'10 1.2 1015.4
2018-Oct-18 15:59N 21°21' W 089°41'0 0.0
2018-Oct-18 14:59N 21°21' W 089°41'0 0.0
2018-Oct-18 14:30N 21°21' W 089°41'10 6.7
2018-Oct-18 13:00N 21°18' W 089°30'15211.7 100 / 101015.510.8 27.024.129.0
2018-Oct-18 00:00N 20°36' W 086°54'418.3 090 / 151014.910.8 28.023.730.0
2018-Oct-17 23:45N 20°35' W 086°59'414.5
2018-Oct-17 23:30N 20°32' W 087°00'4 7.7
2018-Oct-17 23:02N 20°29' W 086°59'0 1.6
2018-Oct-17 22:59N 20°29' W 086°59'0 0.0
2018-Oct-17 22:29N 20°29' W 086°59'0 0.0
2018-Oct-17 22:02N 20°29' W 086°59'0 0.0
2018-Oct-17 21:59N 20°29' W 086°59'0 0.0
2018-Oct-17 21:29N 20°29' W 086°59'0 0.0
2018-Oct-17 20:58N 20°29' W 086°59'0 0.0
2018-Oct-17 20:28N 20°29' W 086°59'0 0.0
2018-Oct-17 20:01N 20°29' W 086°59'0 0.0
2018-Oct-17 19:58N 20°29' W 086°59'0 0.0
2018-Oct-17 19:28N 20°29' W 086°59'0 0.0
2018-Oct-17 19:01N 20°29' W 086°59'0 0.0
2018-Oct-17 18:58N 20°29' W 086°59'0 0.0
2018-Oct-17 18:30N 20°29' W 086°59'0 0.0
2018-Oct-17 18:03N 20°29' W 086°59'0 0.0
2018-Oct-17 18:00N 20°29' W 086°59'0 0.0
2018-Oct-17 17:30N 20°29' W 086°59'0 0.0
2018-Oct-17 17:03N 20°29' W 086°59'0 0.0
2018-Oct-17 17:00N 20°29' W 086°59'0 0.0
2018-Oct-17 16:29N 20°29' W 086°59'0 0.0
2018-Oct-17 16:02N 20°29' W 086°59'0 0.0
2018-Oct-17 15:59N 20°29' W 086°59'0 0.0
2018-Oct-17 15:29N 20°29' W 086°59'0 0.0
2018-Oct-17 15:02N 20°29' W 086°59'0 0.0
2018-Oct-17 14:59N 20°29' W 086°59'0 0.0
2018-Oct-17 13:58N 20°29' W 086°59'1 2.3
2018-Oct-17 13:30N 20°29' W 086°59'4 9.9
2018-Oct-17 13:03N 20°34' W 086°59'116.4
2018-Oct-17 13:00N 20°35' W 086°59'3316.5
2018-Oct-17 11:00N 21°00' W 086°36'20818.9 120 / 281014.010.8 28.022.129.0
2018-Oct-17 00:00N 23°48' W 088°48'22717.5 090 / 201014.510.8 28.022.130.0
2018-Oct-16 11:00N 26°42' W 091°30'19918.1 180 / 201015.310.8 27.022.629.0
2018-Oct-16 00:00N 29°00' W 094°12'1818.0 020 / 221016.0 5.4 28.026.630.0
2018-Oct-15 22:59N 29°11' W 094°29'1014.7
2018-Oct-15 22:20N 29°17' W 094°37'413.7
2018-Oct-15 22:03N 29°20' W 094°40'117.6
2018-Oct-15 22:00N 29°20' W 094°41'510.0
2018-Oct-15 21:29N 29°19' W 094°47'1 2.1
2018-Oct-15 20:59N 29°19' W 094°48'0 0.0
2018-Oct-15 20:29N 29°19' W 094°48'0 0.0
2018-Oct-15 20:02N 29°19' W 094°48'0 0.0
2018-Oct-15 19:59N 29°19' W 094°48'0 0.0
2018-Oct-15 19:29N 29°19' W 094°48'0 0.0
2018-Oct-15 19:01N 29°19' W 094°48'0 0.0
2018-Oct-15 18:58N 29°19' W 094°48'0 0.0
2018-Oct-15 18:28N 29°19' W 094°48'0 0.0
2018-Oct-15 18:01N 29°19' W 094°48'0 0.0
2018-Oct-15 17:55N 29°19' W 094°48'0 0.0
2018-Oct-15 17:28N 29°19' W 094°48'0 0.0
2018-Oct-15 17:03N 29°19' W 094°48'0 0.0
2018-Oct-15 17:00N 29°19' W 094°48'0 0.0
2018-Oct-15 16:30N 29°19' W 094°48'0 0.0
2018-Oct-15 16:03N 29°19' W 094°48'0 0.0
2018-Oct-15 16:00N 29°19' W 094°48'0 0.0
2018-Oct-15 15:30N 29°19' W 094°48'0 0.0
2018-Oct-15 15:03N 29°19' W 094°48'0 0.0
2018-Oct-15 15:00N 29°19' W 094°48'0 0.0
2018-Oct-15 14:29N 29°19' W 094°48'0 0.0
2018-Oct-15 13:59N 29°19' W 094°48'0 0.0
2018-Oct-15 13:29N 29°19' W 094°48'0 0.0
2018-Oct-15 13:02N 29°19' W 094°48'0 0.0
2018-Oct-15 12:59N 29°19' W 094°48'0 0.8
2018-Oct-15 12:30N 29°19' W 094°47'4 8.4
2018-Oct-15 12:03N 29°21' W 094°44'114.4
2018-Oct-15 12:01N 29°21' W 094°43'713.8
2018-Oct-15 11:31N 29°18' W 094°36'612.8
2018-Oct-15 11:03N 29°14' W 094°30'115.3
2018-Oct-15 11:00N 29°14' W 094°30'3115.9
2018-Oct-15 09:02N 28°56' W 094°00'1216.9
2018-Oct-15 08:18N 28°49' W 093°49'518.4
2018-Oct-15 08:02N 28°46' W 093°44'118.6
2018-Oct-15 07:57N 28°45' W 093°43'1618.4
2018-Oct-15 07:05N 28°35' W 093°28'218.4
2018-Oct-15 06:58N 28°34' W 093°26'1118.3
2018-Oct-15 06:21N 28°28' W 093°16'518.2
2018-Oct-15 06:03N 28°24' W 093°11'1019.0
2018-Oct-15 05:31N 28°19' W 093°01'519.0
2018-Oct-15 05:16N 28°16' W 092°57'1318.8
2018-Oct-15 04:36N 28°07' W 092°47'10819.2
2018-Oct-14 23:00N 26°48' W 091°24'23519.5 090 / 111013.110.8 28.020.530.0
2018-Oct-14 11:00N 23°54' W 088°30'5326.7 090 / 121012.910.8 27.024.125.0
2018-Oct-14 09:00N 23°12' W 087°54'16218.0 090 / 121012.410.8 26.023.129.0
2018-Oct-14 00:00N 20°42' W 086°48'1226.3 090 / 171011.210.8 28.026.630.0
2018-Oct-13 23:33N 20°35' W 086°58'116.6
2018-Oct-13 23:30N 20°35' W 086°59'511.6
2018-Oct-13 23:03N 20°29' W 086°59'010.2
2018-Oct-13 23:00N 20°29' W 086°59'1 1.2
2018-Oct-13 22:29N 20°29' W 086°59'0 0.0
2018-Oct-13 22:01N 20°29' W 086°59'0 0.0
2018-Oct-13 21:58N 20°29' W 086°59'0 0.0
2018-Oct-13 21:28N 20°29' W 086°59'0 0.0
2018-Oct-13 21:01N 20°29' W 086°59'0 0.0
2018-Oct-13 20:58N 20°29' W 086°59'0 0.0
2018-Oct-13 20:28N 20°29' W 086°59'0 0.0
2018-Oct-13 20:03N 20°29' W 086°59'0 0.0
2018-Oct-13 20:00N 20°29' W 086°59'0 0.0
2018-Oct-13 19:30N 20°29' W 086°59'0 0.0
2018-Oct-13 19:03N 20°29' W 086°59'0 0.0
2018-Oct-13 19:00N 20°29' W 086°59'0 0.0
2018-Oct-13 18:30N 20°29' W 086°59'0 0.0
2018-Oct-13 18:03N 20°29' W 086°59'0 0.0
2018-Oct-13 18:00N 20°29' W 086°59'0 0.0
2018-Oct-13 17:30N 20°29' W 086°59'0 0.0
2018-Oct-13 17:02N 20°29' W 086°59'0 0.0
2018-Oct-13 16:59N 20°29' W 086°59'0 0.0
2018-Oct-13 16:29N 20°29' W 086°59'0 0.0
2018-Oct-13 16:02N 20°29' W 086°59'0 0.0
2018-Oct-13 15:59N 20°29' W 086°59'0 0.0
2018-Oct-13 15:28N 20°29' W 086°59'0 0.0
2018-Oct-13 15:01N 20°29' W 086°59'0 0.0
2018-Oct-13 14:58N 20°29' W 086°59'0 0.0
2018-Oct-13 14:01N 20°29' W 086°59'0 0.1
2018-Oct-13 13:58N 20°29' W 086°59'0 1.1
2018-Oct-13 13:30N 20°29' W 086°59'4 8.2
2018-Oct-13 13:03N 20°33' W 087°00'113.3
2018-Oct-13 13:01N 20°33' W 086°60'1918.2
2018-Oct-13 12:00N 20°48' W 086°48'19616.3 090 / 51012.6 27.024.130.0
2018-Oct-13 00:00N 23°36' W 088°36'  

Dump ship's entire track history